Time;durP1;ratioP1;P1;durP2;ratioP2;P2;SDS_P1;SDS_P2;PMS_P1;PMS_P2;Temp;Humidity;BMP_temperature;BMP_pressure;BME280_temperature;BME280_humidity;BME280_pressure;Samples;Min_cycle;Max_cycle;Signal;HPM_P1;HPM_P2
2022/03/25 00:00:27;;;;;;;18.60;15.52;;;27.40;99.90;;;;;;4114183;28;20050;-68
2022/03/25 00:02:34;;;;;;;22.95;16.05;;;27.40;99.90;;;;;;4117053;28;20047;-68
2022/03/25 00:04:39;;;;;;;18.25;15.38;;;27.40;99.90;;;;;;4099939;28;20094;-69
2022/03/25 00:06:44;;;;;;;19.02;14.82;;;27.50;99.90;;;;;;4144630;28;20390;-68
2022/03/25 00:08:51;;;;;;;19.48;15.25;;;27.50;99.90;;;;;;4161058;28;20057;-68
2022/03/25 00:10:55;;;;;;;21.27;15.95;;;27.50;99.90;;;;;;4158741;28;20076;-69
2022/03/25 00:13:01;;;;;;;18.77;16.45;;;27.50;99.90;;;;;;4160077;28;20072;-68
2022/03/25 00:15:09;;;;;;;22.13;17.90;;;27.60;99.90;;;;;;4158973;28;20108;-68
2022/03/25 00:17:14;;;;;;;21.60;17.13;;;27.50;99.90;;;;;;4160099;28;20418;-68
2022/03/25 00:19:19;;;;;;;23.67;16.15;;;27.60;99.90;;;;;;4161459;28;20492;-68
2022/03/25 00:21:27;;;;;;;20.67;15.43;;;27.60;99.90;;;;;;4187677;28;20582;-68
2022/03/25 00:23:34;;;;;;;23.33;15.70;;;27.70;99.90;;;;;;4158705;28;20077;-68
2022/03/25 00:25:38;;;;;;;18.52;14.05;;;27.70;99.90;;;;;;4160733;28;20846;-69
2022/03/25 00:27:45;;;;;;;20.20;15.00;;;27.80;99.90;;;;;;4160589;28;20470;-70
2022/03/25 00:29:50;;;;;;;21.17;15.73;;;27.80;99.90;;;;;;4157920;28;20060;-68
2022/03/25 00:31:54;;;;;;;20.20;15.75;;;27.90;99.90;;;;;;4161500;28;20076;-69
2022/03/25 00:34:03;;;;;;;20.67;15.65;;;27.90;99.90;;;;;;4160087;28;20136;-69
2022/03/25 00:36:11;;;;;;;21.15;15.02;;;27.90;99.90;;;;;;4159373;28;20096;-69
2022/03/25 00:38:18;;;;;;;18.05;15.10;;;27.90;99.90;;;;;;4159348;28;20042;-69
2022/03/25 00:40:23;;;;;;;21.17;15.20;;;27.90;99.90;;;;;;4159335;28;20056;-69
2022/03/25 00:42:31;;;;;;;20.05;16.38;;;27.90;99.90;;;;;;4157750;28;20496;-69
2022/03/25 00:44:38;;;;;;;23.20;15.23;;;27.90;99.90;;;;;;4161089;28;20049;-69
2022/03/25 00:46:46;;;;;;;20.30;15.68;;;27.90;99.90;;;;;;4169125;28;20055;-69
2022/03/25 00:48:52;;;;;;;20.88;16.08;;;27.90;99.90;;;;;;4181696;28;20036;-68
2022/03/25 00:50:57;;;;;;;20.77;16.42;;;27.90;99.90;;;;;;4180968;28;20080;-68
2022/03/25 00:53:05;;;;;;;20.55;16.25;;;27.90;99.90;;;;;;4156274;28;20076;-67
2022/03/25 00:55:11;;;;;;;21.58;16.13;;;28.00;99.90;;;;;;4160128;28;20080;-68
2022/03/25 00:57:16;;;;;;;19.23;15.65;;;28.00;99.90;;;;;;4151522;28;20147;-68
2022/03/25 00:59:29;;;;;;;20.00;15.82;;;28.00;99.90;;;;;;4158484;28;20159;-68
2022/03/25 01:01:37;;;;;;;18.70;15.82;;;28.00;99.90;;;;;;4160191;28;20083;-68
2022/03/25 01:03:43;;;;;;;20.83;15.50;;;28.10;99.90;;;;;;4127406;28;20497;-68
2022/03/25 01:05:53;;;;;;;20.50;14.65;;;28.10;99.90;;;;;;4144018;28;20104;-68
2022/03/25 01:07:58;;;;;;;21.10;15.90;;;28.00;99.90;;;;;;4161339;28;20045;-69
2022/03/25 01:10:03;;;;;;;19.75;15.30;;;28.10;99.90;;;;;;4157957;28;20566;-69
2022/03/25 01:12:11;;;;;;;20.48;14.68;;;28.10;99.90;;;;;;4156373;28;20041;-69
2022/03/25 01:14:16;;;;;;;18.90;15.35;;;28.20;99.90;;;;;;4156596;28;20137;-69
2022/03/25 01:16:21;;;;;;;20.65;15.90;;;28.30;99.90;;;;;;4158267;28;20053;-69
2022/03/25 01:18:30;;;;;;;24.02;17.10;;;28.30;99.90;;;;;;4156528;28;20107;-68
2022/03/25 01:20:35;;;;;;;22.67;16.13;;;28.30;99.90;;;;;;4157782;28;20048;-69
2022/03/25 01:22:41;;;;;;;21.90;17.80;;;28.30;99.90;;;;;;4156746;28;20548;-69
2022/03/25 01:24:49;;;;;;;20.42;16.95;;;28.30;99.90;;;;;;4154329;28;20065;-69
2022/03/25 01:26:54;;;;;;;20.77;17.25;;;28.40;99.90;;;;;;4157644;28;20508;-68
2022/03/25 01:29:00;;;;;;;19.85;17.08;;;28.50;99.90;;;;;;4156644;28;20045;-69
2022/03/25 01:31:14;;;;;;;17.25;13.63;;;28.50;99.90;;;;;;4155337;28;20482;-68
2022/03/25 01:33:19;;;;;;;19.98;15.35;;;28.60;99.90;;;;;;4157120;28;20096;-68
2022/03/25 01:35:25;;;;;;;18.52;14.48;;;28.70;99.90;;;;;;4157925;28;20790;-68
2022/03/25 01:37:33;;;;;;;20.77;15.68;;;28.80;99.90;;;;;;4156592;28;20230;-69
2022/03/25 01:39:37;;;;;;;20.20;16.08;;;28.70;99.90;;;;;;4157750;28;20049;-67
2022/03/25 01:41:43;;;;;;;22.50;16.30;;;28.80;99.90;;;;;;4160506;28;20095;-68
2022/03/25 01:43:57;;;;;;;24.35;16.35;;;28.90;99.90;;;;;;4134498;28;20125;-68
2022/03/25 01:46:02;;;;;;;23.38;15.38;;;28.90;99.90;;;;;;4160860;28;20044;-68
2022/03/25 01:48:09;;;;;;;19.98;16.42;;;28.90;99.90;;;;;;4156919;28;20060;-67
2022/03/25 01:50:20;;;;;;;19.05;14.77;;;29.00;99.90;;;;;;4159253;28;20053;-68
2022/03/25 01:52:25;;;;;;;20.20;14.98;;;29.10;99.90;;;;;;4167798;28;20164;-68
2022/03/25 01:54:31;;;;;;;21.15;16.70;;;29.20;99.90;;;;;;4157871;28;20049;-67
2022/03/25 01:56:40;;;;;;;20.80;15.00;;;29.30;99.90;;;;;;4159497;28;20093;-67
2022/03/25 01:58:45;;;;;;;24.00;18.92;;;29.30;99.90;;;;;;4158288;28;20076;-68
2022/03/25 02:00:50;;;;;;;23.20;17.45;;;29.40;99.90;;;;;;4160518;28;20137;-67
2022/03/25 02:03:00;;;;;;;18.48;15.48;;;29.40;99.90;;;;;;4160403;28;20038;-67
2022/03/25 02:05:06;;;;;;;24.80;18.50;;;29.50;99.90;;;;;;4156695;28;20069;-68
2022/03/25 02:07:12;;;;;;;23.15;17.77;;;29.40;99.90;;;;;;4158949;28;20428;-67
2022/03/25 02:09:22;;;;;;;21.65;16.98;;;29.30;99.90;;;;;;4158879;28;20883;-67
2022/03/25 02:11:30;;;;;;;21.20;17.08;;;29.30;99.90;;;;;;4157225;28;20132;-68
2022/03/25 02:13:36;;;;;;;23.30;16.30;;;29.40;99.90;;;;;;4164529;28;20049;-67
2022/03/25 02:15:47;;;;;;;20.13;15.80;;;29.60;99.90;;;;;;4156154;28;20046;-67
2022/03/25 02:17:53;;;;;;;23.90;16.85;;;29.70;99.90;;;;;;4181872;28;20111;-68
2022/03/25 02:19:58;;;;;;;22.35;16.80;;;29.70;99.90;;;;;;4158228;28;20080;-67
2022/03/25 02:22:08;;;;;;;30.30;16.85;;;29.80;99.90;;;;;;4157402;28;20152;-67
2022/03/25 02:24:14;;;;;;;22.90;18.33;;;29.80;99.90;;;;;;4158694;28;20053;-68
2022/03/25 02:26:22;;;;;;;20.45;16.30;;;29.80;99.90;;;;;;4143752;28;20049;-67
2022/03/25 02:28:33;;;;;;;20.05;15.40;;;29.80;99.90;;;;;;4157812;28;20045;-67
2022/03/25 02:30:39;;;;;;;19.20;15.13;;;30.00;99.90;;;;;;4158356;28;20051;-67
2022/03/25 02:32:45;;;;;;;17.40;15.00;;;30.00;99.90;;;;;;4140246;28;20076;-67
2022/03/25 02:34:55;;;;;;;23.83;15.88;;;30.10;99.90;;;;;;4158489;28;20056;-66
2022/03/25 02:37:01;;;;;;;19.55;15.65;;;30.10;99.90;;;;;;4167906;28;20480;-67
2022/03/25 02:39:07;;;;;;;18.02;14.70;;;30.20;99.90;;;;;;4181381;28;20099;-67
2022/03/25 02:41:16;;;;;;;20.75;15.80;;;30.30;99.90;;;;;;4127169;28;20101;-67
2022/03/25 02:43:21;;;;;;;18.80;15.40;;;30.30;99.90;;;;;;4142813;28;20085;-67
2022/03/25 02:45:37;;;;;;;20.52;16.55;;;30.40;99.90;;;;;;4184283;28;20037;-67
2022/03/25 02:47:47;;;;;;;23.75;16.02;;;30.40;99.90;;;;;;4157291;28;20103;-67
2022/03/25 02:49:52;;;;;;;20.92;17.60;;;30.40;99.90;;;;;;4158588;28;20071;-67
2022/03/25 02:51:58;;;;;;;22.80;17.02;;;30.50;99.90;;;;;;4157406;28;20124;-67
2022/03/25 02:54:16;;;;;;;22.40;17.17;;;30.50;99.90;;;;;;4157342;28;20055;-67
2022/03/25 02:56:21;;;;;;;20.00;15.73;;;30.40;99.90;;;;;;4166564;28;20053;-67
2022/03/25 02:58:26;;;;;;;19.08;14.77;;;30.50;99.90;;;;;;4155469;28;20563;-67
2022/03/25 03:00:36;;;;;;;17.75;15.15;;;30.60;99.90;;;;;;4159608;28;20080;-67
2022/03/25 03:02:41;;;;;;;19.40;14.52;;;30.70;99.90;;;;;;4159509;28;20029;-67
2022/03/25 03:04:49;;;;;;;20.17;15.30;;;30.80;99.90;;;;;;4157115;28;20108;-67
2022/03/25 03:06:54;;;;;;;22.23;15.32;;;30.80;99.90;;;;;;4158989;28;20049;-67
2022/03/25 03:08:59;;;;;;;17.35;13.93;;;30.90;99.90;;;;;;4159600;28;20045;-67
2022/03/25 03:11:04;;;;;;;20.63;14.38;;;31.00;99.90;;;;;;4156712;28;20052;-68
2022/03/25 03:13:13;;;;;;;19.17;13.57;;;31.00;99.90;;;;;;4139848;28;20050;-68
2022/03/25 03:15:18;;;;;;;16.73;12.48;;;31.10;99.90;;;;;;4142189;28;20084;-68
2022/03/25 03:17:23;;;;;;;16.05;12.20;;;31.20;99.90;;;;;;4159130;28;20053;-68
2022/03/25 03:19:32;;;;;;;18.77;14.10;;;31.30;99.90;;;;;;4156261;28;20203;-67
2022/03/25 03:21:37;;;;;;;17.02;13.65;;;31.20;99.70;;;;;;4159565;28;20444;-67
2022/03/25 03:23:42;;;;;;;19.17;13.88;;;31.30;99.80;;;;;;4159028;28;20041;-67
2022/03/25 03:25:52;;;;;;;17.80;14.13;;;31.30;99.90;;;;;;4157823;28;20822;-67
2022/03/25 03:27:57;;;;;;;17.38;13.38;;;31.30;99.90;;;;;;4157916;28;20080;-67
2022/03/25 03:30:02;;;;;;;17.10;12.98;;;31.30;99.90;;;;;;4159212;28;20046;-67
2022/03/25 03:32:10;;;;;;;16.42;13.20;;;31.30;99.90;;;;;;4156953;28;20721;-67
2022/03/25 03:34:16;;;;;;;16.45;12.95;;;31.50;99.80;;;;;;4156502;28;20777;-67
2022/03/25 03:36:22;;;;;;;13.63;11.80;;;31.60;99.20;;;;;;4158934;28;20154;-67
2022/03/25 03:38:34;;;;;;;14.30;12.40;;;31.60;99.00;;;;;;4157463;28;20060;-67
2022/03/25 03:40:41;;;;;;;18.98;12.77;;;31.60;99.10;;;;;;4178439;28;20545;-67
2022/03/25 03:42:46;;;;;;;15.02;13.02;;;31.40;99.50;;;;;;4155439;28;20049;-68
2022/03/25 03:44:55;;;;;;;16.08;12.60;;;31.50;99.30;;;;;;4158253;28;20540;-67
2022/03/25 03:47:02;;;;;;;17.40;14.00;;;31.60;99.10;;;;;;4158952;28;20148;-67
2022/03/25 03:49:19;;;;;;;17.33;12.40;;;31.60;99.00;;;;;;4153736;28;20056;-67
2022/03/25 03:51:28;;;;;;;15.27;12.60;;;31.40;99.10;;;;;;4159032;28;20123;-67
2022/03/25 03:53:33;;;;;;;20.63;13.35;;;31.40;98.50;;;;;;4158621;28;20077;-67
2022/03/25 03:55:38;;;;;;;17.33;13.15;;;31.40;98.60;;;;;;4158074;28;20049;-67
2022/03/25 03:57:59;;;;;;;15.13;13.52;;;31.40;98.40;;;;;;4158055;28;20538;-68
2022/03/25 04:00:06;;;;;;;18.73;14.50;;;31.50;98.80;;;;;;4155724;28;20060;-67
2022/03/25 04:02:15;;;;;;;16.23;13.55;;;31.50;98.80;;;;;;4142317;28;20137;-67
2022/03/25 04:04:25;;;;;;;16.88;14.32;;;31.60;98.60;;;;;;4157329;28;20057;-67
2022/03/25 04:06:30;;;;;;;17.30;13.73;;;31.70;98.70;;;;;;4157438;28;20049;-67
2022/03/25 04:08:35;;;;;;;17.52;15.23;;;31.70;98.80;;;;;;4159042;28;20804;-68
2022/03/25 04:10:45;;;;;;;18.67;14.02;;;31.80;98.90;;;;;;4158252;28;20107;-68
2022/03/25 04:12:51;;;;;;;18.55;13.20;;;31.80;98.90;;;;;;4180576;28;20063;-67
2022/03/25 04:14:56;;;;;;;15.13;12.25;;;31.70;99.10;;;;;;4157197;28;20072;-67
2022/03/25 04:17:06;;;;;;;13.68;10.55;;;31.80;98.70;;;;;;4158122;28;20049;-67
2022/03/25 04:19:13;;;;;;;11.25;10.00;;;32.00;97.40;;;;;;4180594;28;20572;-67
2022/03/25 04:21:18;;;;;;;15.50;10.88;;;32.10;97.20;;;;;;4158003;28;20449;-67
2022/03/25 04:23:27;;;;;;;12.45;11.15;;;32.30;96.90;;;;;;4141859;28;20046;-67
2022/03/25 04:25:32;;;;;;;13.52;10.40;;;32.30;96.90;;;;;;4124650;28;20062;-67
2022/03/25 04:27:50;;;;;;;12.95;10.90;;;32.40;96.70;;;;;;4156115;28;20077;-67
2022/03/25 04:30:04;;;;;;;12.82;10.38;;;32.50;95.80;;;;;;4157973;28;20091;-67
2022/03/25 04:32:11;;;;;;;15.23;10.35;;;32.60;95.70;;;;;;4156636;28;20625;-67
2022/03/25 04:34:16;;;;;;;12.10;10.30;;;32.70;94.60;;;;;;4157916;28;20101;-67
2022/03/25 04:36:24;;;;;;;14.43;10.02;;;32.80;95.00;;;;;;4158298;28;20057;-67
2022/03/25 04:38:31;;;;;;;11.52;9.48;;;32.80;95.30;;;;;;4156243;28;20033;-67
2022/03/25 04:40:37;;;;;;;12.82;9.60;;;32.90;95.70;;;;;;4158285;28;20437;-67
2022/03/25 04:42:46;;;;;;;11.25;10.13;;;33.00;95.80;;;;;;4155798;28;20706;-68
2022/03/25 04:44:51;;;;;;;13.02;10.50;;;33.10;95.60;;;;;;4156811;28;20049;-67
2022/03/25 04:46:56;;;;;;;11.75;10.02;;;33.20;95.20;;;;;;4158220;28;20042;-67
2022/03/25 04:49:09;;;;;;;13.10;10.50;;;33.20;95.00;;;;;;4156565;28;20045;-67
2022/03/25 04:51:14;;;;;;;13.32;10.32;;;33.30;94.90;;;;;;4141038;28;20527;-67
2022/03/25 04:53:18;;;;;;;13.27;10.13;;;33.40;94.80;;;;;;4139158;28;20096;-67
2022/03/25 04:55:27;;;;;;;14.25;11.30;;;33.40;94.40;;;;;;4156466;28;20045;-67
2022/03/25 04:57:32;;;;;;;14.82;11.38;;;33.50;94.50;;;;;;4158018;28;20059;-67
2022/03/25 04:59:37;;;;;;;14.07;11.52;;;33.40;95.00;;;;;;4164228;28;20462;-67
2022/03/25 05:01:46;;;;;;;13.60;11.82;;;33.40;95.50;;;;;;4156482;28;20099;-67
2022/03/25 05:03:51;;;;;;;13.73;11.55;;;33.30;95.90;;;;;;4181303;28;20128;-67
2022/03/25 05:05:57;;;;;;;12.20;10.65;;;33.30;96.00;;;;;;4158168;28;20080;-67
2022/03/25 05:08:04;;;;;;;13.05;10.70;;;33.30;95.60;;;;;;4165306;28;20682;-67
2022/03/25 05:10:13;;;;;;;12.77;10.18;;;33.40;95.00;;;;;;4163806;28;20091;-67
2022/03/25 05:12:18;;;;;;;15.13;11.35;;;33.40;94.40;;;;;;4155242;28;20107;-67
2022/03/25 05:14:23;;;;;;;14.07;11.43;;;33.50;93.90;;;;;;4158832;28;20412;-69
2022/03/25 05:16:28;;;;;;;12.30;10.45;;;33.60;94.00;;;;;;4167121;28;20049;-69
2022/03/25 05:18:33;;;;;;;14.93;10.50;;;33.70;93.70;;;;;;4160220;28;20041;-68
2022/03/25 05:20:42;;;;;;;13.45;10.75;;;33.70;93.70;;;;;;4158488;28;20053;-68
2022/03/25 05:22:48;;;;;;;12.95;10.27;;;33.60;93.80;;;;;;4159967;28;20038;-68
2022/03/25 05:24:52;;;;;;;11.68;10.40;;;33.50;94.00;;;;;;4161039;28;20069;-69
2022/03/25 05:27:02;;;;;;;11.90;10.70;;;33.40;93.80;;;;;;4159912;28;20045;-70
2022/03/25 05:29:07;;;;;;;15.23;11.25;;;33.40;93.80;;;;;;4161727;28;20357;-69
2022/03/25 05:31:14;;;;;;;12.52;10.52;;;33.40;93.80;;;;;;4163892;28;20049;-68
2022/03/25 05:33:22;;;;;;;12.02;10.63;;;33.30;93.70;;;;;;4123967;28;20173;-69
2022/03/25 05:35:29;;;;;;;11.73;9.75;;;33.40;93.60;;;;;;4171523;28;20049;-69
2022/03/25 05:37:37;;;;;;;12.75;9.82;;;33.50;93.60;;;;;;4160706;28;20072;-69
2022/03/25 05:39:46;;;;;;;8.80;7.57;;;33.80;93.40;;;;;;4161319;28;20394;-69
2022/03/25 05:41:51;;;;;;;8.55;6.63;;;33.90;91.80;;;;;;4164602;28;20064;-69
2022/03/25 05:43:56;;;;;;;12.43;7.72;;;33.80;91.30;;;;;;4163830;28;20458;-71
2022/03/25 05:46:08;;;;;;;9.02;6.78;;;33.90;90.40;;;;;;4123134;28;20046;-70
2022/03/25 05:48:13;;;;;;;7.95;6.05;;;34.00;90.00;;;;;;4162986;28;20058;-70
2022/03/25 05:50:19;;;;;;;5.90;5.30;;;34.20;90.10;;;;;;4163200;28;20795;-69
2022/03/25 05:52:27;;;;;;;5.68;5.10;;;34.20;87.90;;;;;;4119100;28;20142;-68
2022/03/25 05:54:32;;;;;;;6.35;5.07;;;34.10;86.50;;;;;;4158729;28;20147;-69
2022/03/25 05:56:39;;;;;;;7.88;5.68;;;34.00;87.90;;;;;;4159272;28;20111;-70
2022/03/25 05:58:47;;;;;;;9.60;6.13;;;33.90;90.10;;;;;;4157152;28;20045;-70
2022/03/25 06:00:54;;;;;;;9.43;7.13;;;33.90;90.80;;;;;;4160425;28;20724;-71
2022/03/25 06:02:59;;;;;;;11.38;9.45;;;33.90;90.80;;;;;;4160170;28;20048;-71
2022/03/25 06:05:09;;;;;;;11.95;9.27;;;33.80;92.50;;;;;;4148890;28;20057;-70
2022/03/25 06:07:14;;;;;;;11.38;10.15;;;33.70;93.80;;;;;;4157958;28;20129;-71
2022/03/25 06:09:19;;;;;;;12.05;10.27;;;33.50;94.20;;;;;;4160013;28;20045;-71
2022/03/25 06:11:28;;;;;;;15.18;12.40;;;33.30;94.90;;;;;;4115414;28;20047;-71
2022/03/25 06:13:33;;;;;;;13.50;11.30;;;33.30;95.20;;;;;;4160802;28;20049;-68
2022/03/25 06:15:38;;;;;;;14.95;12.48;;;33.30;95.40;;;;;;4182711;28;20717;-68
2022/03/25 06:17:50;;;;;;;14.25;10.52;;;33.20;95.50;;;;;;4122976;28;20046;-69
2022/03/25 06:19:55;;;;;;;14.02;11.07;;;33.30;94.90;;;;;;4154696;28;20561;-70
2022/03/25 06:22:00;;;;;;;10.32;9.00;;;33.20;95.00;;;;;;4159754;28;20077;-70
2022/03/25 06:24:09;;;;;;;13.93;10.00;;;33.20;95.00;;;;;;4157566;28;20621;-69
2022/03/25 06:26:13;;;;;;;12.95;10.23;;;33.20;94.90;;;;;;4159098;28;20064;-69
2022/03/25 06:28:21;;;;;;;15.15;10.98;;;33.20;95.00;;;;;;4160350;28;20618;-70
2022/03/25 06:30:34;;;;;;;16.00;11.30;;;32.90;95.60;;;;;;4140847;28;20081;-70
2022/03/25 06:32:39;;;;;;;13.93;10.82;;;32.90;95.60;;;;;;4160241;28;20069;-70
2022/03/25 06:34:45;;;;;;;14.55;11.07;;;32.70;95.80;;;;;;4157738;28;20076;-71
2022/03/25 06:36:55;;;;;;;14.07;11.23;;;32.70;95.90;;;;;;4149865;28;20083;-70
2022/03/25 06:38:59;;;;;;;12.25;10.95;;;32.60;95.80;;;;;;4159866;28;20737;-70
2022/03/25 06:41:04;;;;;;;13.38;11.25;;;32.60;96.00;;;;;;4156403;28;20524;-71
2022/03/25 06:43:13;;;;;;;15.73;11.40;;;32.70;95.80;;;;;;4124331;28;20747;-71
2022/03/25 06:45:19;;;;;;;13.68;11.13;;;32.60;96.20;;;;;;4159795;28;20053;-70
2022/03/25 06:47:24;;;;;;;13.40;11.63;;;32.60;96.10;;;;;;4157586;28;20045;-70
2022/03/25 06:49:33;;;;;;;13.93;10.90;;;32.60;95.80;;;;;;4159432;28;20065;-70
2022/03/25 06:51:44;;;;;;;13.15;10.80;;;32.20;96.40;;;;;;4166040;28;20696;-71
2022/03/25 06:53:54;;;;;;;12.93;11.30;;;32.10;96.60;;;;;;4159624;28;20488;-70
2022/03/25 06:56:04;;;;;;;18.23;14.80;;;32.30;96.70;;;;;;4116900;28;20137;-70
2022/03/25 06:58:11;;;;;;;14.23;11.70;;;32.30;96.50;;;;;;4181709;28;20130;-70
2022/03/25 07:00:17;;;;;;;12.10;10.68;;;32.10;96.60;;;;;;4157790;28;20064;-70
2022/03/25 07:02:29;;;;;;;16.70;11.20;;;31.90;96.40;;;;;;4140518;28;20149;-70
2022/03/25 07:04:34;;;;;;;15.18;10.70;;;31.70;96.70;;;;;;4157493;28;20061;-70
2022/03/25 07:06:39;;;;;;;14.40;11.18;;;31.60;96.50;;;;;;4159625;28;20104;-71
2022/03/25 07:08:48;;;;;;;16.13;11.02;;;31.50;96.80;;;;;;4156416;28;20099;-70
2022/03/25 07:10:54;;;;;;;24.23;10.13;;;31.60;96.50;;;;;;4159631;28;20056;-71
2022/03/25 07:12:59;;;;;;;18.60;7.95;;;31.10;96.00;;;;;;4181403;28;20585;-69
2022/03/25 07:15:09;;;;;;;12.40;4.78;;;30.70;96.10;;;;;;4115254;28;20558;-71
2022/03/25 07:17:14;;;;;;;15.43;4.72;;;30.20;96.70;;;;;;4158589;28;20698;-70
2022/03/25 07:19:18;;;;;;;9.63;4.25;;;29.90;97.50;;;;;;4158142;28;20084;-70
2022/03/25 07:21:24;;;;;;;12.85;4.22;;;29.80;97.90;;;;;;4156791;28;20148;-70
2022/03/25 07:23:29;;;;;;;9.65;4.72;;;29.60;98.20;;;;;;4158912;28;20053;-70
2022/03/25 07:25:34;;;;;;;8.65;4.45;;;29.40;98.50;;;;;;4158500;28;20119;-70
2022/03/25 07:27:43;;;;;;;11.15;4.82;;;29.40;98.20;;;;;;4158932;28;20128;-72
2022/03/25 07:29:48;;;;;;;8.00;4.60;;;29.00;98.50;;;;;;4155499;28;20487;-70
2022/03/25 07:31:53;;;;;;;7.18;4.07;;;29.00;98.70;;;;;;4158836;28;20085;-70
2022/03/25 07:34:00;;;;;;;11.32;4.65;;;29.30;98.50;;;;;;4157862;28;20555;-69
2022/03/25 07:36:05;;;;;;;10.43;4.38;;;29.20;98.50;;;;;;4156745;28;20045;-70
2022/03/25 07:38:09;;;;;;;9.13;4.97;;;29.40;98.00;;;;;;4157281;28;20172;-72
2022/03/25 07:40:19;;;;;;;8.90;4.70;;;29.10;98.20;;;;;;4115675;28;20058;-71
2022/03/25 07:42:25;;;;;;;5.97;4.22;;;29.10;98.60;;;;;;4159624;28;20041;-72
2022/03/25 07:44:31;;;;;;;8.18;3.90;;;28.80;98.50;;;;;;4166509;28;20038;-71
2022/03/25 07:46:41;;;;;;;9.95;3.88;;;28.70;98.80;;;;;;4157817;28;20132;-71
2022/03/25 07:48:46;;;;;;;6.03;3.60;;;28.70;98.90;;;;;;4155725;28;20502;-69
2022/03/25 07:50:52;;;;;;;5.57;3.60;;;28.80;98.80;;;;;;4158806;28;20140;-69
2022/03/25 07:53:05;;;;;;;6.72;3.70;;;28.90;98.70;;;;;;4157811;28;20451;-69
2022/03/25 07:55:10;;;;;;;5.85;3.63;;;29.00;98.40;;;;;;4156879;28;20846;-69
2022/03/25 07:57:15;;;;;;;8.32;3.92;;;28.80;98.60;;;;;;4158594;28;20060;-70
2022/03/25 07:59:23;;;;;;;7.45;3.92;;;28.70;98.70;;;;;;4107821;28;20081;-71
2022/03/25 08:01:28;;;;;;;6.30;4.00;;;28.60;99.00;;;;;;4156545;28;20045;-71
2022/03/25 08:03:35;;;;;;;9.05;3.75;;;28.60;99.00;;;;;;4157770;28;20069;-71
2022/03/25 08:05:51;;;;;;;5.63;3.38;;;28.80;98.80;;;;;;4111435;28;20799;-71
2022/03/25 08:08:05;;;;;;;9.52;4.10;;;28.90;98.70;;;;;;4157759;28;20128;-71
2022/03/25 08:10:12;;;;;;;7.93;3.95;;;28.80;98.70;;;;;;4140069;28;20129;-71
2022/03/25 08:12:21;;;;;;;5.43;3.67;;;28.90;98.50;;;;;;4157086;28;20057;-71
2022/03/25 08:14:26;;;;;;;6.20;3.55;;;28.90;98.50;;;;;;4155661;28;20045;-71
2022/03/25 08:16:30;;;;;;;8.07;3.78;;;29.10;98.30;;;;;;4156776;28;20045;-71
2022/03/25 08:18:39;;;;;;;10.57;3.97;;;29.00;98.10;;;;;;4158539;28;20456;-72
2022/03/25 08:20:46;;;;;;;13.02;4.00;;;29.00;98.30;;;;;;4157845;28;20728;-71
2022/03/25 08:22:50;;;;;;;9.02;4.32;;;29.20;98.00;;;;;;4128431;28;20138;-71
2022/03/25 08:29:36;;;;;;;11.80;4.15;;;29.10;98.50;;;;;;4157234;28;20046;-72
2022/03/25 08:31:43;;;;;;;10.35;4.15;;;29.00;98.30;;;;;;4157997;28;20037;-72
2022/03/25 08:33:48;;;;;;;11.77;4.18;;;28.80;98.70;;;;;;4155617;28;20056;-72
2022/03/25 08:35:53;;;;;;;9.65;4.28;;;28.80;99.00;;;;;;4141073;28;20163;-72
2022/03/25 08:38:00;;;;;;;8.93;5.03;;;28.90;98.70;;;;;;4107849;28;20054;-72
2022/03/25 08:40:06;;;;;;;13.45;6.40;;;28.90;98.80;;;;;;4154361;28;20068;-72
2022/03/25 08:42:16;;;;;;;16.05;6.35;;;28.80;99.00;;;;;;4156710;28;20065;-72
2022/03/25 08:44:26;;;;;;;17.13;8.15;;;29.00;99.10;;;;;;4138938;28;20056;-72
2022/03/25 08:46:33;;;;;;;17.90;8.65;;;29.00;98.70;;;;;;4156703;28;20045;-72
2022/03/25 08:48:42;;;;;;;19.88;8.63;;;28.90;99.10;;;;;;4158079;28;20603;-72
2022/03/25 08:50:53;;;;;;;18.45;8.27;;;29.00;98.90;;;;;;4160056;28;20107;-72
2022/03/25 08:52:59;;;;;;;21.05;7.80;;;28.80;99.30;;;;;;4160592;28;20037;-69
2022/03/25 08:55:09;;;;;;;12.48;6.00;;;29.10;98.90;;;;;;4158654;28;20068;-69
2022/03/25 08:57:13;;;;;;;12.23;5.35;;;29.10;98.50;;;;;;4158422;28;20058;-68
2022/03/25 08:59:18;;;;;;;14.88;5.45;;;28.90;99.00;;;;;;4158851;28;20566;-68
2022/03/25 09:01:24;;;;;;;11.18;5.88;;;29.10;98.70;;;;;;4153216;28;20041;-68
2022/03/25 09:03:32;;;;;;;9.93;5.60;;;28.70;99.20;;;;;;4158206;28;20041;-68
2022/03/25 09:05:37;;;;;;;8.75;4.90;;;28.80;99.30;;;;;;4158291;28;20050;-68
2022/03/25 09:07:42;;;;;;;10.00;5.15;;;28.80;99.00;;;;;;4158415;28;20049;-69
2022/03/25 09:09:50;;;;;;;7.93;4.70;;;28.70;99.20;;;;;;4158607;28;20083;-68
2022/03/25 09:11:56;;;;;;;11.93;5.40;;;28.70;99.40;;;;;;4159779;28;20045;-68
2022/03/25 09:14:01;;;;;;;11.02;6.88;;;28.80;99.40;;;;;;4160855;28;20049;-68
2022/03/25 09:16:11;;;;;;;17.52;7.70;;;28.60;99.60;;;;;;4160657;28;20514;-67
2022/03/25 09:18:16;;;;;;;12.77;6.45;;;28.70;99.50;;;;;;4161123;28;20057;-68
2022/03/25 09:20:21;;;;;;;21.15;8.02;;;28.80;99.30;;;;;;4163604;28;20471;-68
2022/03/25 09:22:31;;;;;;;14.55;7.32;;;28.70;99.40;;;;;;4161986;28;20049;-67
2022/03/25 09:24:42;;;;;;;13.07;6.13;;;28.70;99.40;;;;;;4164571;28;20044;-67
2022/03/25 09:26:48;;;;;;;10.95;5.70;;;28.70;99.60;;;;;;4161600;28;20064;-68
2022/03/25 09:28:57;;;;;;;13.65;6.90;;;28.80;99.30;;;;;;4163470;28;20042;-68
2022/03/25 09:31:01;;;;;;;14.68;7.63;;;29.00;99.10;;;;;;4164041;28;20079;-67
2022/03/25 09:33:07;;;;;;;19.67;7.70;;;28.90;99.10;;;;;;4161403;28;20787;-68
2022/03/25 09:35:16;;;;;;;9.90;6.60;;;28.90;99.10;;;;;;4143733;28;20103;-69
2022/03/25 09:37:21;;;;;;;13.25;6.60;;;28.90;98.60;;;;;;4154155;28;20140;-68
2022/03/25 09:39:26;;;;;;;21.58;9.88;;;29.10;98.70;;;;;;4164521;28;20050;-68
2022/03/25 09:41:36;;;;;;;20.60;10.82;;;29.10;98.80;;;;;;4164175;28;20053;-69
2022/03/25 09:43:40;;;;;;;15.90;9.43;;;29.00;98.60;;;;;;4164382;28;20045;-68
2022/03/25 09:45:46;;;;;;;18.73;10.38;;;29.10;98.50;;;;;;4164362;28;20037;-68
2022/03/25 09:47:55;;;;;;;14.65;9.45;;;29.00;98.80;;;;;;4164248;28;20184;-69
2022/03/25 09:50:00;;;;;;;16.48;9.48;;;29.00;99.20;;;;;;4164500;28;20045;-68
2022/03/25 09:52:06;;;;;;;16.55;8.25;;;28.90;98.90;;;;;;4164201;28;20080;-68
2022/03/25 09:54:35;;;;;;;19.88;9.70;;;29.10;99.00;;;;;;4130015;28;20109;-67
2022/03/25 09:56:44;;;;;;;15.07;7.13;;;29.00;99.00;;;;;;4135859;28;20046;-68
2022/03/25 09:58:49;;;;;;;12.70;6.78;;;28.90;99.00;;;;;;4145481;28;20063;-67
2022/03/25 10:00:56;;;;;;;13.20;6.90;;;29.00;99.10;;;;;;4144938;28;20114;-67
2022/03/25 10:03:02;;;;;;;12.10;5.43;;;28.90;99.10;;;;;;4142007;28;20046;-68
2022/03/25 10:05:19;;;;;;;12.30;5.57;;;28.80;98.60;;;;;;4144863;28;20038;-67
2022/03/25 10:07:30;;;;;;;16.70;5.20;;;28.80;98.50;;;;;;4145369;28;20133;-68
2022/03/25 10:09:34;;;;;;;11.00;5.25;;;28.70;98.60;;;;;;4144497;28;20049;-67
2022/03/25 10:11:39;;;;;;;11.93;5.28;;;28.60;98.80;;;;;;4144876;28;20138;-68
2022/03/25 10:13:46;;;;;;;12.38;5.68;;;28.50;99.10;;;;;;4145308;28;20172;-67
2022/03/25 10:15:52;;;;;;;11.30;5.28;;;28.40;99.40;;;;;;4144984;28;20049;-67
2022/03/25 10:18:03;;;;;;;12.27;4.97;;;28.60;99.20;;;;;;4144825;28;20042;-67
2022/03/25 10:20:13;;;;;;;12.73;5.22;;;28.50;99.20;;;;;;4128965;28;20599;-67
2022/03/25 10:22:18;;;;;;;12.35;4.85;;;28.50;99.20;;;;;;4145306;28;20033;-68
2022/03/25 10:24:39;;;;;;;13.38;4.63;;;28.50;99.20;;;;;;4145223;28;20050;-67
2022/03/25 10:26:51;;;;;;;15.65;4.40;;;28.70;99.00;;;;;;4130986;28;20568;-68
2022/03/25 10:28:57;;;;;;;12.85;6.30;;;28.70;98.70;;;;;;4163364;28;20069;-68
2022/03/25 10:31:06;;;;;;;12.18;5.00;;;28.60;98.90;;;;;;4162907;28;20095;-67
2022/03/25 10:33:14;;;;;;;13.32;5.00;;;28.50;98.90;;;;;;4162628;28;20056;-68
2022/03/25 10:35:20;;;;;;;11.90;4.43;;;28.70;98.50;;;;;;4161705;28;20627;-68
2022/03/25 10:37:27;;;;;;;10.73;4.40;;;28.70;98.30;;;;;;4162951;28;20061;-68
2022/03/25 10:39:33;;;;;;;9.93;5.03;;;28.70;98.30;;;;;;4161952;28;20737;-67
2022/03/25 10:41:45;;;;;;;12.23;4.85;;;28.80;98.10;;;;;;4162735;28;20045;-68
2022/03/25 10:44:02;;;;;;;15.38;5.55;;;28.90;98.00;;;;;;4160817;28;20076;-68
2022/03/25 10:46:25;;;;;;;10.75;5.38;;;29.00;97.90;;;;;;4160270;28;20049;-67
2022/03/25 10:48:30;;;;;;;17.60;5.80;;;29.20;97.80;;;;;;4163427;28;20564;-67
2022/03/25 10:50:38;;;;;;;28.05;7.13;;;29.10;97.80;;;;;;4162875;28;20057;-68
2022/03/25 10:52:48;;;;;;;19.25;7.43;;;29.00;98.10;;;;;;4112126;28;20042;-68
2022/03/25 10:55:22;;;;;;;16.08;7.50;;;29.00;98.00;;;;;;4128670;28;20521;-67